Flag for French Guiana

Past Weather in 5°17'29.2"N, 52°34'58.9"W, French Guiana — Yesterday and Last 2 Weeks

Currently: 86 °F. Overcast. (Weather station: Cayenne / Rochambeau, French Guiana). See more current weather

Past Weather in 5°17'29.2"N, 52°34'58.9"W — Graph

°F

5°17'29.2"N, 52°34'58.9"W Temperature Yesterday

Maximum temperature yesterday: 88 °F (at 10:30 am)
Minimum temperature yesterday: 72 °F (at 5:00 am)
Average temperature yesterday: 79 °F

High & Low Weather Summary for the Past Weeks

 TemperatureHumidityPressure
High90 °F (Jun 13, 2:00 pm)100% (Jun 12, 3:00 am)29.98 "Hg (Jun 12, 3:00 am)
Low70 °F (Jun 17, 6:30 am)52% (Jun 17, 1:30 pm)29.80 "Hg (Jun 23, 4:00 pm)
Average78 °F86%29.90 "Hg
* Reported Jun 11 10:00 am — Jun 26 10:00 am, 5°17'29.2"N, 52°34'58.9"W. Weather by CustomWeather, © 2022

Note: Actual official high and low records may vary slightly from our data, if they occured in-between our weather recording intervals... More about our weather records

5°17'29.2"N, 52°34'58.9"W Weather History for the Previous 24 Hours

Scroll right to see more
 ConditionsComfort  
Time TempWeatherWind HumidityBarometerVisibility
10:00 am
Sun, Jun 26
84 °FSunny.2 mph79%29.92 "Hg10 mi
9:00 am79 °FPartly sunny.No wind89%29.92 "HgN/A
8:00 am75 °FLow clouds.1 mph94%29.89 "HgN/A
7:30 am73 °FLow clouds.3 mph100%29.89 "HgN/A
7:00 am73 °FLow clouds.2 mph100%29.89 "HgN/A
6:00 am73 °FMostly cloudy.2 mph94%29.89 "HgN/A
5:30 am73 °FLight fog.2 mph94%29.89 "Hg5 mi
5:00 am72 °FFog.2 mph100%29.89 "Hg1 mi
4:30 am72 °FFog.No wind100%29.86 "Hg1 mi
4:00 am73 °FFog.No wind94%29.86 "Hg1 mi
3:30 am73 °FFog.No wind94%29.86 "Hg1 mi
3:00 am73 °FFog.No wind94%29.86 "HgN/A
2:00 am73 °FFog.No wind100%29.89 "Hg1 mi
1:00 am73 °FFog.No wind100%29.92 "Hg1 mi
12:30 am73 °FClear.No wind100%29.92 "Hg10 mi
12:00 am75 °FClear.No wind94%29.92 "Hg10 mi
11:30 pm
Sat, Jun 25
75 °FClear.No wind94%29.92 "Hg10 mi
11:00 pm75 °FClear.1 mph94%29.92 "Hg10 mi
10:30 pm75 °FClear.No wind94%29.92 "Hg10 mi
10:00 pm75 °FClear.No wind94%29.92 "Hg10 mi
8:30 pm77 °FClear.No wind94%29.89 "Hg10 mi
8:00 pm77 °FClear.No wind94%29.89 "Hg10 mi
7:30 pm77 °FClear.2 mph94%29.89 "Hg10 mi
7:00 pm77 °FClear.1 mph94%29.86 "Hg10 mi
6:30 pm79 °FSunny.2 mph89%29.86 "Hg10 mi
6:00 pm82 °FSunny.No wind79%29.86 "Hg10 mi
5:00 pm79 °FBroken clouds.1 mph84%29.83 "HgN/A
4:00 pm86 °FPartly sunny.5 mph70%29.83 "HgN/A
3:30 pm86 °FSunny.1 mph70%29.83 "Hg10 mi
2:00 pm79 °FLight rain. Fog.9 mph89%29.86 "Hg2 mi
1:30 pm82 °FLight rain. Fog.14 mph79%29.89 "Hg2 mi
1:00 pm88 °FPassing clouds.10 mph66%29.86 "HgN/A
12:30 pm88 °FBroken clouds.5 mph66%29.89 "HgN/A
12:00 pm88 °FPartly sunny.5 mph55%29.89 "HgN/A
11:00 am88 °FPassing clouds.9 mph59%29.89 "HgN/A
Weather by CustomWeather, © 2022

See weather overview